Time;durP1;ratioP1;P1;durP2;ratioP2;P2;SDS_P1;SDS_P2;PMS_P1;PMS_P2;Temp;Humidity;BMP_temperature;BMP_pressure;BME280_temperature;BME280_humidity;BME280_pressure;Samples;Min_cycle;Max_cycle;Signal;HPM_P1;HPM_P2
2021/08/18 00:06:34;;;;;;;3.60;1.67;;;26.40;29.50;;;;;;21213940;27;81155;-72
2021/08/18 00:16:36;;;;;;;4.45;1.63;;;26.30;29.90;;;;;;21213389;27;81792;-70
2021/08/18 00:26:38;;;;;;;3.95;1.70;;;26.10;30.60;;;;;;21213206;27;82116;-73
2021/08/18 00:36:50;;;;;;;7.25;1.52;;;26.00;31.00;;;;;;21214182;27;81346;-72
2021/08/18 00:46:54;;;;;;;9.63;2.58;;;25.90;31.70;;;;;;21213114;27;80514;-72
2021/08/18 00:56:57;;;;;;;5.53;1.50;;;25.70;32.10;;;;;;21211059;27;80497;-71
2021/08/18 01:07:01;;;;;;;5.38;1.42;;;25.50;32.40;;;;;;21210148;27;80685;-72
2021/08/18 01:17:23;;;;;;;5.85;1.80;;;25.40;32.80;;;;;;21229210;27;80889;-71
2021/08/18 01:27:47;;;;;;;4.20;1.27;;;25.30;33.00;;;;;;21227149;27;80528;-71
2021/08/18 01:37:57;;;;;;;3.92;1.55;;;25.20;33.30;;;;;;21208590;27;81325;-72
2021/08/18 01:48:25;;;;;;;4.28;1.50;;;25.00;35.00;;;;;;21210619;27;80380;-69
2021/08/18 01:58:49;;;;;;;4.90;1.70;;;24.90;35.70;;;;;;21210201;27;80393;-71
2021/08/18 02:08:56;;;;;;;3.90;1.55;;;24.70;37.10;;;;;;21225218;27;80041;-70
2021/08/18 02:19:07;;;;;;;3.30;1.48;;;24.60;35.50;;;;;;21208547;27;81161;-72
2021/08/18 02:29:16;;;;;;;4.72;1.55;;;24.40;35.90;;;;;;21207250;27;79962;-72
2021/08/18 02:39:20;;;;;;;5.20;1.45;;;24.30;35.40;;;;;;21223244;27;80669;-71
2021/08/18 02:49:25;;;;;;;4.78;2.47;;;24.20;35.50;;;;;;21205318;27;80882;-70
2021/08/18 02:59:29;;;;;;;5.45;2.47;;;23.90;35.50;;;;;;21237369;27;82022;-72
2021/08/18 03:09:32;;;;;;;3.67;1.80;;;23.80;36.40;;;;;;21218326;27;81157;-72
2021/08/18 03:19:36;;;;;;;4.80;2.03;;;23.60;36.00;;;;;;21218228;27;80824;-71
2021/08/18 03:29:39;;;;;;;4.20;2.15;;;23.50;36.40;;;;;;21235783;27;79983;-72
2021/08/18 03:39:43;;;;;;;5.22;2.00;;;23.40;36.00;;;;;;21234263;27;80932;-72
2021/08/18 03:49:46;;;;;;;3.58;2.10;;;23.20;38.30;;;;;;21215915;27;81143;-72
2021/08/18 03:59:49;;;;;;;6.75;1.60;;;23.20;39.90;;;;;;21233770;27;81105;-73
2021/08/18 04:09:52;;;;;;;6.43;2.13;;;23.20;39.60;;;;;;21214849;27;80774;-74
2021/08/18 04:19:57;;;;;;;7.55;2.22;;;23.10;38.80;;;;;;21232408;27;81270;-73
2021/08/18 04:30:00;;;;;;;4.85;1.90;;;23.10;37.60;;;;;;21213919;27;81644;-74
2021/08/18 04:40:04;;;;;;;5.95;2.08;;;23.00;37.40;;;;;;21212376;27;81054;-73
2021/08/18 04:50:12;;;;;;;4.18;1.80;;;23.00;37.10;;;;;;21212469;27;81151;-72
2021/08/18 05:00:15;;;;;;;9.27;2.10;;;23.00;37.80;;;;;;21210625;27;80700;-73
2021/08/18 05:10:17;;;;;;;6.15;2.08;;;22.90;37.50;;;;;;21210674;27;79926;-75
2021/08/18 05:20:19;;;;;;;4.40;2.22;;;22.80;37.60;;;;;;21209405;27;81202;-72
2021/08/18 05:30:22;;;;;;;6.20;2.10;;;22.80;37.90;;;;;;21205321;27;82576;-72
2021/08/18 05:40:25;;;;;;;6.40;2.38;;;22.60;41.10;;;;;;21102552;27;81591;-73
2021/08/18 05:50:31;;;;;;;7.13;1.90;;;22.50;39.90;;;;;;21104272;27;81486;-71
2021/08/18 06:00:35;;;;;;;8.00;2.60;;;22.70;39.60;;;;;;21128198;27;81601;-71
2021/08/18 06:10:39;;;;;;;16.13;2.90;;;22.70;39.00;;;;;;21109289;27;81056;-72
2021/08/18 06:20:53;;;;;;;5.43;2.50;;;22.90;38.70;;;;;;21126949;27;81675;-71
2021/08/18 06:31:09;;;;;;;5.63;2.45;;;23.00;38.90;;;;;;21122154;27;79978;-71
2021/08/18 06:41:16;;;;;;;7.28;2.10;;;23.10;38.10;;;;;;21126839;27;81277;-72
2021/08/18 06:51:21;;;;;;;6.50;2.00;;;23.30;37.40;;;;;;21122307;27;80703;-72
2021/08/18 07:01:26;;;;;;;7.72;2.47;;;23.40;37.00;;;;;;21117415;27;81372;-73
2021/08/18 07:11:30;;;;;;;8.45;2.47;;;23.50;37.20;;;;;;21118622;27;81293;-72
2021/08/18 07:21:33;;;;;;;10.63;3.08;;;23.70;37.10;;;;;;21133707;27;82891;-73
2021/08/18 07:31:36;;;;;;;8.57;2.58;;;23.90;36.80;;;;;;21115036;27;81677;-70
2021/08/18 07:41:49;;;;;;;9.52;3.30;;;24.20;37.30;;;;;;21118615;27;82125;-69
2021/08/18 07:51:57;;;;;;;9.20;2.70;;;24.40;37.20;;;;;;21118558;27;80923;-70
2021/08/18 08:02:07;;;;;;;8.13;2.70;;;24.60;37.10;;;;;;21117623;27;81640;-69
2021/08/18 08:12:14;;;;;;;8.02;2.83;;;24.90;37.00;;;;;;21114797;27;81630;-72
2021/08/18 08:22:19;;;;;;;8.50;3.17;;;25.40;37.50;;;;;;21133986;27;82991;-70
2021/08/18 08:32:41;;;;;;;8.50;2.93;;;25.70;38.30;;;;;;21114581;27;81394;-70
2021/08/18 08:43:03;;;;;;;12.20;3.40;;;26.00;37.40;;;;;;21115460;27;80969;-71
2021/08/18 08:53:24;;;;;;;12.30;3.83;;;26.40;38.80;;;;;;21127122;27;81380;-71
2021/08/18 09:03:35;;;;;;;12.90;3.67;;;26.70;40.40;;;;;;21113146;27;81333;-71
2021/08/18 09:13:50;;;;;;;14.45;3.75;;;27.00;42.90;;;;;;21111095;27;81774;-70
2021/08/18 09:24:15;;;;;;;11.57;4.72;;;27.30;44.00;;;;;;21106324;27;81912;-70
2021/08/18 09:34:26;;;;;;;12.18;4.75;;;27.70;45.80;;;;;;21117890;27;81394;-69
2021/08/18 09:44:36;;;;;;;17.27;4.80;;;28.00;44.80;;;;;;21112249;27;81278;-71
2021/08/18 09:55:01;;;;;;;13.45;4.60;;;28.70;44.40;;;;;;21127881;27;80537;-69
2021/08/18 10:05:04;;;;;;;15.80;4.40;;;29.50;42.40;;;;;;21107824;27;82546;-65
2021/08/18 10:15:07;;;;;;;12.13;4.13;;;30.40;40.00;;;;;;21109315;27;82381;-65
2021/08/18 10:25:49;;;;;;;20.02;5.18;;;31.10;38.40;;;;;;21122446;27;81742;-66
2021/08/18 10:35:50;;;;;;;16.47;4.77;;;32.50;36.40;;;;;;21125929;27;80834;-65
2021/08/18 10:45:56;;;;;;;14.77;5.05;;;34.00;33.60;;;;;;21124642;27;81393;-67
2021/08/18 10:55:57;;;;;;;9.80;4.32;;;36.00;31.20;;;;;;21100006;27;82829;-68
2021/08/18 11:05:59;;;;;;;12.13;4.10;;;38.10;28.30;;;;;;21104024;27;81884;-67
2021/08/18 11:16:26;;;;;;;11.13;4.28;;;40.50;26.00;;;;;;21113932;27;80726;-69
2021/08/18 11:26:34;;;;;;;14.07;4.78;;;43.60;23.40;;;;;;21134607;27;81213;-67
2021/08/18 11:36:44;;;;;;;19.17;5.80;;;46.00;20.90;;;;;;21118252;27;81398;-68
2021/08/18 11:46:47;;;;;;;11.27;4.35;;;48.00;19.50;;;;;;21114429;27;81200;-68
2021/08/18 11:57:05;;;;;;;12.15;4.70;;;49.80;18.30;;;;;;21114070;27;80683;-68
2021/08/18 12:07:13;;;;;;;12.30;4.53;;;50.10;18.10;;;;;;21115563;27;80955;-69
2021/08/18 12:17:16;;;;;;;9.43;4.50;;;51.50;16.70;;;;;;21114950;27;81715;-67
2021/08/18 12:27:27;;;;;;;10.88;5.25;;;51.80;16.80;;;;;;21132793;27;81098;-69
2021/08/18 12:37:36;;;;;;;10.60;4.88;;;50.60;17.40;;;;;;21129107;27;82294;-67
2021/08/18 12:47:53;;;;;;;13.70;5.40;;;53.50;16.00;;;;;;21114562;27;81807;-67
2021/08/18 12:57:56;;;;;;;11.73;5.20;;;53.50;15.20;;;;;;21112319;27;82574;-69
2021/08/18 13:07:58;;;;;;;9.10;5.30;;;55.30;14.60;;;;;;21108818;27;81735;-69
2021/08/18 13:18:00;;;;;;;5.28;4.55;;;55.40;13.80;;;;;;21117440;27;81719;-66
2021/08/18 13:28:04;;;;;;;8.10;4.53;;;49.80;14.90;;;;;;21142072;27;81107;-70
2021/08/18 13:38:10;;;;;;;10.38;4.90;;;46.00;16.50;;;;;;21122778;27;80701;-67
2021/08/18 13:48:12;;;;;;;8.68;4.63;;;48.90;14.50;;;;;;21140082;27;80308;-64
2021/08/18 13:58:17;;;;;;;7.35;5.05;;;51.20;13.00;;;;;;21122079;27;81225;-64
2021/08/18 14:08:21;;;;;;;10.00;4.27;;;50.30;12.90;;;;;;21121117;27;80682;-63
2021/08/18 14:18:24;;;;;;;9.43;4.25;;;49.50;12.70;;;;;;21119606;27;80765;-66
2021/08/18 14:28:26;;;;;;;11.55;5.32;;;49.20;12.40;;;;;;21119297;27;81059;-66
2021/08/18 14:38:28;;;;;;;10.10;5.57;;;54.10;11.40;;;;;;21118920;27;81860;-65
2021/08/18 14:48:31;;;;;;;7.87;4.53;;;56.30;10.80;;;;;;21124344;27;80753;-67
2021/08/18 14:58:34;;;;;;;7.67;4.80;;;56.50;9.60;;;;;;21151274;27;81241;-65
2021/08/18 15:08:36;;;;;;;7.20;3.90;;;51.90;10.60;;;;;;21132350;27;80553;-64
2021/08/18 15:18:38;;;;;;;7.82;4.20;;;48.60;11.50;;;;;;21150591;27;80739;-65
2021/08/18 15:28:40;;;;;;;6.40;3.60;;;44.30;14.20;;;;;;21131695;27;80660;-64
2021/08/18 15:38:42;;;;;;;5.05;2.95;;;41.40;14.60;;;;;;21130933;27;81602;-67
2021/08/18 15:48:45;;;;;;;5.65;3.33;;;40.20;14.90;;;;;;21130270;27;80359;-64
2021/08/18 15:58:47;;;;;;;6.50;3.17;;;42.10;13.70;;;;;;21129387;27;81718;-64
2021/08/18 16:08:51;;;;;;;4.95;3.25;;;43.00;12.80;;;;;;21147162;27;81122;-64
2021/08/18 16:18:53;;;;;;;3.60;2.63;;;43.30;12.90;;;;;;21146091;27;80666;-64
2021/08/18 16:28:55;;;;;;;5.80;3.72;;;44.50;14.10;;;;;;21127957;27;80969;-64
2021/08/18 16:38:58;;;;;;;3.90;2.38;;;40.50;15.20;;;;;;21128326;27;82938;-64
2021/08/18 16:49:00;;;;;;;3.45;2.58;;;38.70;16.10;;;;;;21126833;27;80522;-66
2021/08/18 16:59:04;;;;;;;4.90;2.63;;;37.70;15.90;;;;;;21143800;27;81828;-64
2021/08/18 17:09:06;;;;;;;3.95;2.35;;;38.40;14.70;;;;;;21123739;27;80655;-65
2021/08/18 17:19:10;;;;;;;5.95;2.40;;;37.60;15.60;;;;;;21124829;27;83124;-64
2021/08/18 17:29:13;;;;;;;5.40;2.58;;;36.30;15.60;;;;;;21123610;27;81265;-64
2021/08/18 17:39:19;;;;;;;4.10;2.75;;;35.50;17.30;;;;;;21141853;27;82297;-64
2021/08/18 17:49:22;;;;;;;6.55;2.72;;;35.40;17.60;;;;;;21122564;27;82006;-66
2021/08/18 17:59:24;;;;;;;4.68;2.90;;;35.20;16.60;;;;;;21140383;27;82881;-65
2021/08/18 18:09:26;;;;;;;5.38;2.80;;;34.90;16.30;;;;;;21123281;27;82769;-67
2021/08/18 18:19:28;;;;;;;5.28;2.53;;;35.70;16.30;;;;;;21122408;27;82843;-65
2021/08/18 18:29:31;;;;;;;4.80;2.42;;;35.10;15.50;;;;;;21134533;27;81139;-63
2021/08/18 18:39:32;;;;;;;3.38;2.60;;;36.70;15.40;;;;;;21133977;27;80584;-64
2021/08/18 18:49:37;;;;;;;4.00;2.63;;;34.30;19.90;;;;;;21131485;27;80687;-65
2021/08/18 18:59:40;;;;;;;9.32;3.08;;;33.30;17.20;;;;;;21129872;27;81021;-64
2021/08/18 19:09:42;;;;;;;7.40;3.13;;;32.70;17.50;;;;;;21131912;27;79911;-63
2021/08/18 19:19:44;;;;;;;8.95;3.92;;;32.30;17.10;;;;;;21132654;27;81954;-65
2021/08/18 19:29:48;;;;;;;9.82;3.95;;;31.90;18.60;;;;;;21131701;27;80782;-64
2021/08/18 19:39:51;;;;;;;9.85;4.20;;;31.40;19.30;;;;;;21129352;27;80826;-64
2021/08/18 19:49:58;;;;;;;13.27;5.38;;;31.10;19.80;;;;;;21129063;27;80282;-66
2021/08/18 20:00:00;;;;;;;9.15;4.70;;;31.00;20.00;;;;;;21138642;27;81736;-69
2021/08/18 20:10:03;;;;;;;8.88;4.80;;;30.60;20.60;;;;;;21128816;27;80782;-67
2021/08/18 20:20:06;;;;;;;10.63;4.65;;;30.40;20.50;;;;;;21146803;27;80911;-73
2021/08/18 20:30:08;;;;;;;5.82;3.88;;;30.30;20.50;;;;;;21146300;27;80925;-73
2021/08/18 20:40:09;;;;;;;9.25;4.10;;;30.20;20.90;;;;;;21121803;27;80392;-74
2021/08/18 20:50:10;;;;;;;3.92;2.50;;;30.00;23.30;;;;;;21119518;27;79927;-74
2021/08/18 21:00:12;;;;;;;12.93;4.57;;;29.70;27.00;;;;;;21124255;27;79996;-73
2021/08/18 21:10:13;;;;;;;9.25;4.22;;;29.40;23.60;;;;;;21121927;27;80018;-75
2021/08/18 21:20:18;;;;;;;8.30;4.43;;;29.30;25.20;;;;;;21125155;27;81728;-71
2021/08/18 21:30:19;;;;;;;10.68;3.33;;;29.00;24.30;;;;;;21142323;27;81065;-72
2021/08/18 21:40:20;;;;;;;5.57;3.22;;;28.90;24.10;;;;;;21140927;27;81128;-73
2021/08/18 21:50:23;;;;;;;10.63;4.00;;;28.70;25.00;;;;;;21121805;27;81010;-74
2021/08/18 22:00:26;;;;;;;7.25;4.05;;;28.50;24.60;;;;;;21121338;27;80909;-74
2021/08/18 22:10:29;;;;;;;7.82;3.53;;;28.40;24.50;;;;;;21121104;27;81834;-73
2021/08/18 22:20:31;;;;;;;9.02;3.90;;;28.20;24.40;;;;;;21122708;27;82442;-74
2021/08/18 22:30:33;;;;;;;6.65;2.97;;;28.10;24.50;;;;;;21119564;27;81744;-72
2021/08/18 22:40:36;;;;;;;9.35;2.90;;;28.00;24.50;;;;;;21118643;27;81278;-75
2021/08/18 22:50:38;;;;;;;9.07;3.78;;;27.80;24.80;;;;;;21136874;27;81559;-73
2021/08/18 23:00:40;;;;;;;5.38;2.70;;;27.60;25.50;;;;;;21135534;27;80896;-75
2021/08/18 23:10:42;;;;;;;9.70;2.53;;;27.60;25.90;;;;;;21123641;27;80894;-74
2021/08/18 23:20:44;;;;;;;5.13;2.90;;;27.50;26.50;;;;;;21131839;27;81733;-74
2021/08/18 23:30:46;;;;;;;4.72;2.80;;;27.50;30.60;;;;;;21149734;27;81124;-75
2021/08/18 23:40:50;;;;;;;7.68;2.63;;;27.40;28.60;;;;;;21130851;27;80755;-74
2021/08/18 23:50:52;;;;;;;4.40;2.85;;;27.20;28.30;;;;;;21129789;27;81855;-73
